Terminal Aerodrome Forecast
Issued by NWS

Home | Current Version | Previous Version | Text Only | Print | Product List | Glossary On
Versions: 1 2 3 4 5 6 7 8 9 10 11 12 13 14 15 16 17 18 19
263
FTUS43 KIND 221120
TAFBMG
TAF
KBMG 221120Z 2212/2312 07012KT P6SM VCSH OVC008
     FM221600 06011KT P6SM OVC010
     FM230200 10005KT P6SM VCSH OVC010
     FM230500 11006KT 3SM RA OVC003
     FM230900 14006KT 2SM RA OVC003 WS020/20035KT
      AMD LTD TO CLD VIS AND WIND TIL 221400=

USA.gov is the U.S. government's official web portal to all federal, state and local government web resources and services.